Terminal Aerodrome Forecast
Issued by NWS

Home | Current Version | Previous Version | Text Only | Print | Product List | Glossary On
Versions: 1 2 3 4 5 6 7 8 9 10 11 12 13 14 15 16
000
FTUS42 KJAX 202320
TAFVQQ
TAF
KVQQ 202320Z 2100/2124 05008KT P6SM BKN040
     FM210300 06003KT P6SM SCT030 BKN200
     FM211500 11008KT P6SM VCSH SCT025 BKN050=

USA.gov is the U.S. government's official web portal to all federal, state and local government web resources and services.